createdAt,value
2023-01-20T00:00:48.239Z,2.78
2023-01-20T00:04:08.816Z,2.89
2023-01-20T00:07:25.022Z,2.84
2023-01-20T00:10:40.825Z,2.71
2023-01-20T00:14:14.690Z,2.70
2023-01-20T00:17:39.744Z,2.49
2023-01-20T00:20:59.895Z,2.54
2023-01-20T00:24:13.496Z,2.53
2023-01-20T00:27:36.819Z,2.60
2023-01-20T00:31:07.808Z,2.35
2023-01-20T00:34:28.606Z,2.27
2023-01-20T00:37:38.721Z,2.47
2023-01-20T00:40:42.770Z,2.44
2023-01-20T00:43:46.512Z,2.53
2023-01-20T00:47:02.874Z,2.79
2023-01-20T00:50:09.943Z,2.51
2023-01-20T00:53:16.121Z,2.67
2023-01-20T00:56:25.891Z,2.72
2023-01-20T00:59:28.893Z,2.80
2023-01-20T01:02:39.744Z,2.63
2023-01-20T01:05:49.355Z,2.49
2023-01-20T01:08:53.226Z,2.72
2023-01-20T01:12:08.793Z,2.72
2023-01-20T01:15:36.568Z,2.58
2023-01-20T01:19:05.190Z,2.34
2023-01-20T01:22:08.294Z,2.57
2023-01-20T01:25:14.725Z,2.53
2023-01-20T01:28:22.041Z,2.50
2023-01-20T01:31:35.893Z,2.63
2023-01-20T01:34:58.589Z,2.53
2023-01-20T01:38:18.689Z,2.56
2023-01-20T01:41:38.556Z,2.72
2023-01-20T01:45:14.152Z,2.17
2023-01-20T01:48:32.548Z,2.12
2023-01-20T01:51:51.754Z,2.28
2023-01-20T01:55:02.755Z,2.29
2023-01-20T01:58:15.178Z,2.32
2023-01-20T02:01:21.362Z,2.34
2023-01-20T02:04:38.730Z,2.47
2023-01-20T02:07:55.469Z,2.49
2023-01-20T02:11:22.539Z,2.46
2023-01-20T02:14:45.352Z,2.21
2023-01-20T02:18:19.613Z,2.36
2023-01-20T02:21:59.859Z,2.47
2023-01-20T02:25:21.215Z,2.42
2023-01-20T02:28:35.799Z,2.57
2023-01-20T02:32:00.831Z,2.46
2023-01-20T02:35:42.868Z,2.51
2023-01-20T02:39:26.885Z,2.50
2023-01-20T02:42:41.240Z,2.52
2023-01-20T02:46:01.085Z,2.08
2023-01-20T02:49:20.944Z,2.34
2023-01-20T02:52:39.650Z,1.94
2023-01-20T02:56:04.294Z,1.81
2023-01-20T02:59:35.085Z,2.31
2023-01-20T03:02:41.004Z,2.36
2023-01-20T03:05:55.216Z,2.49
2023-01-20T03:09:16.672Z,2.15
2023-01-20T03:12:46.030Z,2.30
2023-01-20T03:16:02.351Z,2.52
2023-01-20T03:19:20.395Z,2.22
2023-01-20T03:22:28.397Z,2.47
2023-01-20T03:25:33.011Z,2.49
2023-01-20T03:28:48.591Z,2.67
2023-01-20T03:32:12.372Z,2.76
2023-01-20T03:35:35.234Z,2.77
2023-01-20T03:38:51.609Z,2.68
2023-01-20T03:42:19.398Z,2.69
2023-01-20T03:45:37.288Z,2.73
2023-01-20T03:49:16.579Z,2.81
2023-01-20T03:52:48.053Z,2.67
2023-01-20T03:55:54.663Z,2.84
2023-01-20T03:59:08.504Z,2.55
2023-01-20T04:02:22.532Z,2.71
2023-01-20T04:05:27.301Z,2.48
2023-01-20T04:08:37.135Z,2.16
2023-01-20T04:11:53.997Z,2.54
2023-01-20T04:15:17.384Z,2.70
2023-01-20T04:18:34.970Z,2.31
2023-01-20T04:22:04.954Z,2.61
2023-01-20T04:25:23.095Z,2.82
2023-01-20T04:28:44.971Z,2.95
2023-01-20T04:32:09.250Z,2.84
2023-01-20T04:35:26.200Z,2.81
2023-01-20T04:38:49.059Z,2.85
2023-01-20T04:42:12.064Z,2.78
2023-01-20T04:45:36.075Z,2.87
2023-01-20T04:48:46.513Z,2.77
2023-01-20T04:52:09.149Z,2.85
2023-01-20T04:55:43.247Z,2.89
2023-01-20T04:59:06.168Z,2.78
2023-01-20T05:02:27.040Z,2.86
2023-01-20T05:05:49.980Z,2.91
2023-01-20T05:09:11.034Z,2.86
2023-01-20T05:12:14.063Z,2.73
2023-01-20T05:15:17.183Z,2.66
2023-01-20T05:18:26.406Z,2.63
2023-01-20T05:21:49.443Z,2.80
2023-01-20T05:25:03.601Z,2.82
2023-01-20T05:28:19.047Z,2.93
2023-01-20T05:31:30.078Z,2.96
2023-01-20T05:34:33.402Z,2.95
2023-01-20T05:37:52.875Z,2.92
2023-01-20T05:41:15.859Z,2.96
2023-01-20T05:44:29.272Z,3.07
2023-01-20T05:47:44.865Z,3.28
2023-01-20T05:50:58.425Z,3.38
2023-01-20T05:54:02.258Z,3.34
2023-01-20T05:57:19.448Z,3.46
2023-01-20T06:00:34.935Z,3.57
2023-01-20T06:03:50.800Z,3.58
2023-01-20T06:07:24.763Z,3.64
2023-01-20T06:10:50.696Z,3.60
2023-01-20T06:14:11.745Z,3.63
2023-01-20T06:17:21.721Z,3.60
2023-01-20T06:20:25.451Z,3.59
2023-01-20T06:23:36.079Z,3.64
2023-01-20T06:26:42.543Z,3.63
2023-01-20T06:29:56.182Z,3.79
2023-01-20T06:33:08.827Z,3.79
2023-01-20T06:36:17.767Z,3.90
2023-01-20T06:39:31.711Z,3.89
2023-01-20T06:42:41.771Z,3.82
2023-01-20T06:46:06.004Z,3.92
2023-01-20T06:49:44.402Z,3.93
2023-01-20T06:53:19.540Z,3.85
2023-01-20T06:56:27.309Z,3.84
2023-01-20T06:59:44.944Z,3.81
2023-01-20T07:03:05.969Z,3.91
2023-01-20T07:06:47.819Z,4.01
2023-01-20T07:10:13.201Z,3.94
2023-01-20T07:13:17.268Z,4.08
2023-01-20T07:16:35.098Z,3.95
2023-01-20T07:19:39.564Z,4.08
2023-01-20T07:22:42.868Z,4.06
2023-01-20T07:26:07.828Z,4.08
2023-01-20T07:29:31.764Z,4.14
2023-01-20T07:32:59.450Z,4.24
2023-01-20T07:36:13.854Z,4.08
2023-01-20T07:39:22.753Z,4.10
2023-01-20T07:42:39.595Z,3.89
2023-01-20T07:46:02.582Z,4.01
2023-01-20T07:49:15.699Z,4.23
2023-01-20T07:52:32.952Z,3.39
2023-01-20T07:56:20.252Z,3.32
2023-01-20T07:59:42.508Z,3.67
2023-01-20T08:03:38.805Z,3.37
2023-01-20T08:10:59.302Z,3.54
2023-01-20T08:14:04.545Z,3.72
2023-01-20T08:23:15.460Z,3.71
2023-01-20T08:27:20.493Z,3.41
2023-01-20T08:30:32.129Z,3.63
2023-01-20T08:34:03.833Z,3.84
2023-01-20T08:37:07.834Z,3.54
2023-01-20T08:40:15.288Z,3.55
2023-01-20T08:43:29.628Z,3.59
2023-01-20T08:47:28.147Z,3.60
2023-01-20T08:50:33.358Z,3.75
2023-01-20T08:54:24.598Z,3.89
2023-01-20T09:06:55.175Z,4.17
2023-01-20T09:10:55.574Z,4.04
2023-01-20T09:19:12.157Z,4.11
2023-01-20T09:22:27.642Z,4.14
2023-01-20T09:31:17.868Z,4.10
2023-01-20T09:35:05.749Z,4.22
2023-01-20T09:44:10.833Z,4.42
2023-01-20T09:48:16.773Z,3.98
2023-01-20T09:52:06.521Z,3.99
2023-01-20T09:55:27.356Z,4.41
2023-01-20T09:59:08.948Z,3.86
2023-01-20T10:03:07.041Z,4.16
2023-01-20T10:06:25.188Z,4.36
2023-01-20T10:09:55.207Z,4.42
2023-01-20T10:13:53.600Z,4.16
2023-01-20T10:18:06.123Z,4.34
2023-01-20T10:21:46.896Z,4.63
2023-01-20T10:26:18.000Z,4.66
2023-01-20T10:35:54.482Z,4.65
2023-01-20T10:39:36.502Z,5.04
2023-01-20T10:43:04.602Z,4.85
2023-01-20T10:46:35.252Z,5.13
2023-01-20T10:49:49.781Z,4.89
2023-01-20T10:53:51.120Z,5.15
2023-01-20T10:57:18.203Z,5.47
2023-01-20T11:01:42.296Z,5.60
2023-01-20T11:05:00.315Z,5.42
2023-01-20T11:08:32.396Z,5.34
2023-01-20T11:11:44.721Z,5.41
2023-01-20T11:14:59.935Z,5.26
2023-01-20T11:18:26.764Z,5.29
2023-01-20T11:21:52.570Z,5.34
2023-01-20T11:29:57.193Z,5.12
2023-01-20T11:33:24.809Z,4.94
2023-01-20T11:37:00.847Z,5.00
2023-01-20T11:40:28.579Z,5.06
2023-01-20T11:43:40.496Z,5.07
2023-01-20T11:46:52.554Z,5.10
2023-01-20T11:50:09.725Z,5.12
2023-01-20T11:53:35.163Z,5.26
2023-01-20T11:57:09.008Z,5.21
2023-01-20T12:01:15.940Z,5.14
2023-01-20T12:04:38.717Z,5.18
2023-01-20T12:07:49.004Z,5.08
2023-01-20T12:11:02.839Z,5.16
2023-01-20T12:14:29.973Z,5.10
2023-01-20T12:17:40.054Z,4.96
2023-01-20T12:21:08.128Z,5.05
2023-01-20T12:25:08.999Z,4.89
2023-01-20T12:28:49.157Z,5.06
2023-01-20T12:31:59.528Z,4.92
2023-01-20T12:35:06.799Z,5.01
2023-01-20T12:38:19.074Z,4.93
2023-01-20T12:41:48.407Z,5.17
2023-01-20T12:45:18.562Z,5.04
2023-01-20T12:48:49.087Z,4.90
2023-01-20T12:52:07.425Z,4.97
2023-01-20T12:55:41.252Z,4.95
2023-01-20T12:58:55.125Z,4.87
2023-01-20T13:02:24.597Z,4.22
2023-01-20T13:06:01.334Z,4.23
2023-01-20T13:09:32.645Z,3.92
2023-01-20T13:13:31.415Z,3.53
2023-01-20T13:17:09.825Z,3.32
2023-01-20T13:20:25.265Z,3.48
2023-01-20T13:23:36.055Z,3.37
2023-01-20T13:26:50.984Z,3.43
2023-01-20T13:30:07.030Z,3.17
2023-01-20T13:33:36.848Z,3.05
2023-01-20T13:37:06.085Z,2.75
2023-01-20T13:40:42.471Z,2.93
2023-01-20T13:43:55.444Z,2.93
2023-01-20T13:47:08.326Z,2.83
2023-01-20T13:50:36.738Z,2.63
2023-01-20T13:53:51.012Z,2.64
2023-01-20T13:57:28.180Z,2.67
2023-01-20T14:00:32.199Z,2.31
2023-01-20T14:03:52.781Z,2.16
2023-01-20T14:07:10.115Z,2.31
2023-01-20T14:10:26.671Z,2.45
2023-01-20T14:13:55.649Z,2.14
2023-01-20T14:17:21.110Z,2.32
2023-01-20T14:20:37.779Z,2.19
2023-01-20T14:23:55.493Z,2.27
2023-01-20T14:27:18.398Z,2.42
2023-01-20T14:30:27.536Z,2.22
2023-01-20T14:33:34.625Z,2.23
2023-01-20T14:36:37.642Z,2.29
2023-01-20T14:39:51.332Z,2.13
2023-01-20T14:43:00.014Z,2.23
2023-01-20T14:46:10.938Z,2.16
2023-01-20T14:49:19.356Z,2.20
2023-01-20T14:52:31.289Z,2.32
2023-01-20T14:55:56.176Z,2.34
2023-01-20T14:58:59.733Z,2.42
2023-01-20T15:02:14.739Z,2.34
2023-01-20T15:05:31.424Z,2.29
2023-01-20T15:08:41.058Z,2.19
2023-01-20T15:11:58.517Z,1.91
2023-01-20T15:15:27.434Z,2.26
2023-01-20T15:18:50.341Z,2.11
2023-01-20T15:22:21.010Z,2.05
2023-01-20T15:25:36.171Z,2.04
2023-01-20T15:28:57.487Z,2.22
2023-01-20T15:32:12.390Z,2.19
2023-01-20T15:35:37.674Z,2.21
2023-01-20T15:38:59.333Z,2.09
2023-01-20T15:42:25.532Z,2.31
2023-01-20T15:45:28.750Z,2.11
2023-01-20T15:48:32.169Z,2.31
2023-01-20T15:51:45.991Z,2.17
2023-01-20T15:54:55.789Z,2.13
2023-01-20T15:58:27.157Z,2.20
2023-01-20T16:01:47.979Z,2.13
2023-01-20T16:04:57.841Z,1.98
2023-01-20T16:08:34.942Z,2.13
2023-01-20T16:11:56.771Z,1.95
2023-01-20T16:15:14.885Z,1.99
2023-01-20T16:18:23.780Z,1.81
2023-01-20T16:21:32.597Z,1.80
2023-01-20T16:24:38.750Z,1.98
2023-01-20T16:27:45.642Z,2.02
2023-01-20T16:31:06.234Z,1.93
2023-01-20T16:34:26.154Z,2.01
2023-01-20T16:37:33.279Z,1.80
2023-01-20T16:40:44.503Z,1.87
2023-01-20T16:43:59.086Z,1.68
2023-01-20T16:47:19.958Z,1.77
2023-01-20T16:50:36.339Z,1.81
2023-01-20T16:53:59.127Z,1.83
2023-01-20T16:57:24.945Z,1.82
2023-01-20T17:00:28.002Z,1.67
2023-01-20T17:03:31.993Z,1.28
2023-01-20T17:06:43.445Z,1.49
2023-01-20T17:09:49.606Z,1.53
2023-01-20T17:12:54.350Z,1.65
2023-01-20T17:15:59.289Z,1.43
2023-01-20T17:19:21.250Z,1.40
2023-01-20T17:22:45.299Z,1.46
2023-01-20T17:26:07.060Z,1.47
2023-01-20T17:29:27.943Z,1.38
2023-01-20T17:32:51.055Z,1.52
2023-01-20T17:36:04.014Z,1.46
2023-01-20T17:39:20.009Z,1.45
2023-01-20T17:42:57.058Z,1.49
2023-01-20T17:46:23.205Z,1.42
2023-01-20T17:49:26.118Z,1.60
2023-01-20T17:52:29.398Z,1.65
2023-01-20T17:55:39.756Z,1.63
2023-01-20T17:58:44.638Z,1.73
2023-01-20T18:01:52.487Z,1.47
2023-01-20T18:04:55.437Z,1.50
2023-01-20T18:08:05.741Z,1.77
2023-01-20T18:11:21.765Z,1.62
2023-01-20T18:14:29.063Z,1.85
2023-01-20T18:17:34.518Z,1.85
2023-01-20T18:20:57.881Z,1.81
2023-01-20T18:24:19.450Z,1.65
2023-01-20T18:27:29.847Z,1.60
2023-01-20T18:30:39.622Z,1.85
2023-01-20T18:33:52.172Z,1.89
2023-01-20T18:37:02.883Z,1.97
2023-01-20T18:40:11.160Z,1.92
2023-01-20T18:43:24.042Z,1.87
2023-01-20T18:46:28.681Z,2.14
2023-01-20T18:49:42.745Z,1.86
2023-01-20T18:52:45.733Z,1.99
2023-01-20T18:55:50.434Z,1.79
2023-01-20T18:58:56.063Z,1.77
2023-01-20T19:02:03.297Z,1.95
2023-01-20T19:05:07.690Z,1.95
2023-01-20T19:08:10.938Z,1.97
2023-01-20T19:11:29.827Z,2.14
2023-01-20T19:14:54.592Z,1.95
2023-01-20T19:18:16.562Z,1.98
2023-01-20T19:21:39.693Z,1.85
2023-01-20T19:25:02.683Z,1.86
2023-01-20T19:28:19.716Z,1.95
2023-01-20T19:31:43.801Z,2.04
2023-01-20T19:34:47.822Z,1.84
2023-01-20T19:37:57.424Z,1.75
2023-01-20T19:41:17.376Z,2.09
2023-01-20T19:44:20.815Z,1.91
2023-01-20T19:47:30.661Z,2.09
2023-01-20T19:50:36.939Z,2.06
2023-01-20T19:53:44.539Z,2.12
2023-01-20T19:57:01.772Z,2.19
2023-01-20T20:00:26.563Z,2.12
2023-01-20T20:03:29.964Z,2.08
2023-01-20T20:06:38.374Z,1.99
2023-01-20T20:09:42.561Z,1.99
2023-01-20T20:12:52.318Z,2.03
2023-01-20T20:16:06.137Z,2.09
2023-01-20T20:19:16.265Z,1.98
2023-01-20T20:22:23.539Z,2.16
2023-01-20T20:25:37.994Z,2.05
2023-01-20T20:28:58.526Z,1.88
2023-01-20T20:32:02.516Z,1.96
2023-01-20T20:35:07.392Z,1.97
2023-01-20T20:38:10.561Z,2.16
2023-01-20T20:41:35.464Z,2.12
2023-01-20T20:45:04.683Z,2.23
2023-01-20T20:48:14.018Z,2.10
2023-01-20T20:51:38.416Z,2.22
2023-01-20T20:55:15.396Z,2.34
2023-01-20T20:58:48.542Z,2.36
2023-01-20T21:02:01.387Z,2.28
2023-01-20T21:05:24.226Z,2.40
2023-01-20T21:08:45.264Z,2.08
2023-01-20T21:12:07.409Z,2.28
2023-01-20T21:15:24.258Z,2.21
2023-01-20T21:18:28.587Z,2.23
2023-01-20T21:21:33.272Z,2.25
2023-01-20T21:24:50.839Z,2.27
2023-01-20T21:27:57.903Z,2.10
2023-01-20T21:31:01.617Z,2.17
2023-01-20T21:34:06.969Z,2.25
2023-01-20T21:37:23.497Z,1.91
2023-01-20T21:40:45.575Z,2.10
2023-01-20T21:44:25.331Z,1.96
2023-01-20T21:47:34.000Z,1.81
2023-01-20T21:51:12.491Z,2.02
2023-01-20T21:54:16.424Z,1.91
2023-01-20T21:57:39.456Z,1.99
2023-01-20T22:01:03.390Z,2.18
2023-01-20T22:04:19.471Z,2.12
2023-01-20T22:07:44.360Z,2.03
2023-01-20T22:11:11.353Z,2.04
2023-01-20T22:14:34.301Z,1.98
2023-01-20T22:17:48.634Z,2.03
2023-01-20T22:21:09.440Z,2.09
2023-01-20T22:24:25.447Z,2.14
2023-01-20T22:27:48.199Z,2.22
2023-01-20T22:30:56.480Z,1.97
2023-01-20T22:34:06.620Z,2.05
2023-01-20T22:37:20.039Z,2.09
2023-01-20T22:40:41.929Z,2.11
2023-01-20T22:44:03.809Z,2.24
2023-01-20T22:47:25.799Z,2.23
2023-01-20T22:50:36.003Z,2.25
2023-01-20T22:53:59.049Z,2.15
2023-01-20T22:57:33.091Z,2.00
2023-01-20T23:00:57.889Z,2.07
2023-01-20T23:04:16.921Z,1.67
2023-01-20T23:07:38.941Z,2.13
2023-01-20T23:10:55.271Z,2.08
2023-01-20T23:14:13.787Z,2.08
2023-01-20T23:17:23.739Z,1.97
2023-01-20T23:20:26.914Z,2.11
2023-01-20T23:23:43.382Z,2.06
2023-01-20T23:26:53.399Z,2.17
2023-01-20T23:30:00.000Z,1.73
2023-01-20T23:33:08.299Z,1.72
2023-01-20T23:36:21.143Z,1.99
2023-01-20T23:39:24.676Z,1.82
2023-01-20T23:42:28.991Z,2.15
2023-01-20T23:45:38.970Z,2.00
2023-01-20T23:49:01.892Z,2.11
2023-01-20T23:52:37.955Z,1.81
2023-01-20T23:56:21.935Z,1.87
2023-01-20T23:59:45.920Z,2.02
